Time;durP1;ratioP1;P1;durP2;ratioP2;P2;SDS_P1;SDS_P2;PMS_P1;PMS_P2;Temp;Humidity;BMP_temperature;BMP_pressure;BME280_temperature;BME280_humidity;BME280_pressure;Samples;Min_cycle;Max_cycle;Signal;HPM_P1;HPM_P2
2023/11/11 00:01:57;;;;;;;10.77;2.35;;;22.80;57.30;;;;;;10411740;28;20598;-52
2023/11/11 00:07:02;;;;;;;7.50;1.70;;;22.80;57.30;;;;;;10408484;28;20695;-52
2023/11/11 00:12:07;;;;;;;4.57;1.52;;;22.80;57.30;;;;;;10411529;28;20260;-50
2023/11/11 00:17:11;;;;;;;8.07;1.40;;;22.80;57.30;;;;;;10388105;28;20220;-51
2023/11/11 00:22:16;;;;;;;4.20;1.42;;;22.80;57.30;;;;;;10409802;28;20231;-53
2023/11/11 00:27:20;;;;;;;3.65;1.58;;;22.80;57.30;;;;;;10406608;28;20266;-47
2023/11/11 00:32:24;;;;;;;4.00;1.10;;;22.80;57.30;;;;;;10410865;28;20208;-49
2023/11/11 00:37:29;;;;;;;3.75;1.33;;;22.80;57.30;;;;;;10407282;28;20636;-48
2023/11/11 00:42:32;;;;;;;3.67;1.52;;;22.80;57.30;;;;;;10410491;28;20203;-47
2023/11/11 00:47:36;;;;;;;3.10;1.40;;;22.80;57.30;;;;;;10406452;28;20252;-51
2023/11/11 00:52:40;;;;;;;2.17;1.20;;;22.80;57.30;;;;;;10410656;28;20277;-49
2023/11/11 00:57:46;;;;;;;4.25;1.35;;;22.80;57.50;;;;;;10407259;28;20220;-50
2023/11/11 01:02:51;;;;;;;2.05;1.08;;;22.80;57.30;;;;;;10410868;28;20266;-51
2023/11/11 01:07:57;;;;;;;1.80;1.23;;;22.80;57.90;;;;;;10402850;28;20232;-51
2023/11/11 01:13:01;;;;;;;2.95;1.20;;;22.80;57.30;;;;;;10409708;28;20196;-51
2023/11/11 01:18:04;;;;;;;3.70;1.35;;;22.80;57.30;;;;;;10405471;28;20228;-47
2023/11/11 01:23:09;;;;;;;4.03;1.25;;;22.80;57.30;;;;;;10409944;28;20207;-50
2023/11/11 01:28:13;;;;;;;1.17;1.00;;;22.80;57.30;;;;;;10407812;28;20263;-48
2023/11/11 01:33:16;;;;;;;1.20;1.00;;;22.80;57.30;;;;;;10409332;28;20203;-46
2023/11/11 01:38:21;;;;;;;1.92;1.25;;;22.80;57.30;;;;;;10397867;28;20216;-51
2023/11/11 01:43:25;;;;;;;2.15;0.90;;;22.70;57.20;;;;;;10405313;28;20269;-54
2023/11/11 01:48:31;;;;;;;1.50;1.17;;;22.80;57.30;;;;;;10407514;28;20282;-47
2023/11/11 01:53:38;;;;;;;1.48;1.13;;;22.70;57.20;;;;;;10409517;28;20208;-47
2023/11/11 01:58:42;;;;;;;1.92;1.10;;;22.80;57.30;;;;;;10404702;28;20224;-49
2023/11/11 02:03:46;;;;;;;1.33;1.13;;;22.80;57.30;;;;;;10406986;28;20728;-48
2023/11/11 02:08:51;;;;;;;1.52;1.40;;;22.70;57.20;;;;;;10416181;28;20643;-47
2023/11/11 02:13:54;;;;;;;1.77;1.02;;;22.70;57.20;;;;;;10412254;28;20257;-51
2023/11/11 02:18:59;;;;;;;2.35;1.60;;;22.80;57.30;;;;;;10409771;28;20224;-51
2023/11/11 02:24:05;;;;;;;1.48;1.38;;;22.80;57.30;;;;;;10412712;28;20223;-52
2023/11/11 02:29:09;;;;;;;1.98;1.20;;;22.80;57.30;;;;;;10414726;28;20267;-53
2023/11/11 02:34:12;;;;;;;2.03;1.63;;;22.80;57.20;;;;;;10415494;28;20209;-51
2023/11/11 02:39:17;;;;;;;1.30;1.20;;;22.80;57.20;;;;;;10416147;28;20224;-47
2023/11/11 02:44:21;;;;;;;1.58;1.48;;;22.70;57.10;;;;;;10414245;28;20301;-50
2023/11/11 02:49:24;;;;;;;1.83;1.45;;;22.70;57.10;;;;;;10415783;28;20224;-49
2023/11/11 02:54:29;;;;;;;1.80;1.48;;;22.70;57.10;;;;;;10410391;28;20262;-49
2023/11/11 02:59:32;;;;;;;2.00;1.58;;;22.80;57.20;;;;;;10414566;28;20224;-48
2023/11/11 03:04:38;;;;;;;1.45;1.35;;;22.70;57.10;;;;;;10413671;28;20200;-51
2023/11/11 03:09:43;;;;;;;2.83;1.52;;;22.70;57.10;;;;;;10415270;28;20228;-50
2023/11/11 03:14:46;;;;;;;2.03;1.42;;;22.70;57.10;;;;;;10409188;28;20208;-48
2023/11/11 03:19:50;;;;;;;1.77;1.65;;;22.70;57.10;;;;;;10409181;28;20575;-47
2023/11/11 03:24:55;;;;;;;1.60;1.50;;;22.70;57.10;;;;;;10413852;28;20266;-47
2023/11/11 03:29:59;;;;;;;1.50;1.40;;;22.70;57.10;;;;;;10415462;28;20282;-50
2023/11/11 03:35:06;;;;;;;2.28;2.00;;;22.70;57.10;;;;;;10406557;28;20647;-47
2023/11/11 03:40:13;;;;;;;2.15;1.60;;;22.80;57.20;;;;;;10388205;28;20204;-47
2023/11/11 03:45:16;;;;;;;2.88;1.70;;;22.70;57.10;;;;;;10414230;28;20810;-46
2023/11/11 03:50:20;;;;;;;2.03;1.63;;;22.70;57.10;;;;;;10411755;28;20618;-49
2023/11/11 03:55:25;;;;;;;1.92;1.60;;;22.70;57.00;;;;;;10409739;28;20220;-53
2023/11/11 04:00:29;;;;;;;1.92;1.83;;;22.80;57.20;;;;;;10410614;28;20196;-48
2023/11/11 04:05:32;;;;;;;1.90;1.70;;;22.70;57.00;;;;;;10408579;28;20212;-52
2023/11/11 04:10:37;;;;;;;4.05;2.03;;;22.70;57.00;;;;;;10412075;28;20610;-56
2023/11/11 04:15:41;;;;;;;2.70;1.50;;;22.70;57.00;;;;;;10411965;28;20227;-54
2023/11/11 04:20:44;;;;;;;7.15;1.80;;;22.80;57.10;;;;;;10411241;28;20667;-57
2023/11/11 04:25:51;;;;;;;2.60;1.77;;;22.80;57.10;;;;;;10409636;28;20370;-52
2023/11/11 04:30:54;;;;;;;3.30;2.13;;;22.80;57.00;;;;;;10407690;28;20256;-53
2023/11/11 04:35:58;;;;;;;3.08;2.05;;;22.80;57.00;;;;;;10410413;28;20247;-53
2023/11/11 04:41:05;;;;;;;3.60;1.58;;;22.80;57.10;;;;;;10411397;28;20200;-51
2023/11/11 04:46:08;;;;;;;4.13;2.10;;;22.80;57.10;;;;;;10409286;28;20232;-50
2023/11/11 04:51:12;;;;;;;2.63;1.77;;;22.80;57.00;;;;;;10410983;28;20220;-50
2023/11/11 04:56:17;;;;;;;4.25;1.60;;;22.80;57.10;;;;;;10408935;28;20216;-51
2023/11/11 05:01:21;;;;;;;2.33;1.73;;;22.80;57.00;;;;;;10400870;28;20228;-52
2023/11/11 05:06:27;;;;;;;1.73;1.60;;;22.70;57.00;;;;;;10406092;28;20282;-52
2023/11/11 05:11:32;;;;;;;1.98;1.58;;;22.70;57.60;;;;;;10410059;28;20224;-48
2023/11/11 05:16:39;;;;;;;2.00;1.60;;;22.70;57.00;;;;;;10406101;28;20224;-50
2023/11/11 05:21:43;;;;;;;2.05;1.60;;;22.70;57.00;;;;;;10409963;28;20200;-55
2023/11/11 05:26:48;;;;;;;1.83;1.48;;;22.80;57.00;;;;;;10407576;28;20258;-52
2023/11/11 05:31:52;;;;;;;3.55;1.55;;;22.80;57.10;;;;;;10407481;28;20962;-50
2023/11/11 05:36:56;;;;;;;3.15;2.20;;;22.80;57.00;;;;;;10381290;28;20225;-51
2023/11/11 05:42:01;;;;;;;4.20;2.80;;;22.70;57.00;;;;;;10407428;28;20571;-54
2023/11/11 05:47:04;;;;;;;5.10;2.90;;;22.80;57.00;;;;;;10403300;28;20250;-50
2023/11/11 05:52:08;;;;;;;3.17;2.72;;;22.70;57.00;;;;;;10407443;28;20593;-53
2023/11/11 05:57:13;;;;;;;4.82;3.30;;;22.70;56.90;;;;;;10405919;28;20285;-53
2023/11/11 06:02:16;;;;;;;6.22;4.57;;;22.80;57.00;;;;;;10407740;28;20192;-50
2023/11/11 06:07:20;;;;;;;5.63;3.97;;;22.80;57.00;;;;;;10401404;28;20220;-47
2023/11/11 06:12:25;;;;;;;8.30;4.10;;;22.70;57.00;;;;;;10409208;28;20200;-49
2023/11/11 06:17:29;;;;;;;8.50;3.83;;;22.80;57.00;;;;;;10407777;28;20276;-48
2023/11/11 06:22:33;;;;;;;14.55;4.68;;;22.80;57.00;;;;;;10404721;28;20621;-49
2023/11/11 06:27:38;;;;;;;5.22;3.17;;;22.80;57.00;;;;;;10406861;28;20220;-48
2023/11/11 06:32:42;;;;;;;9.63;3.45;;;22.80;57.60;;;;;;10408617;28;20200;-47
2023/11/11 06:37:45;;;;;;;8.77;4.00;;;22.80;57.00;;;;;;10405797;28;20274;-50
2023/11/11 06:42:54;;;;;;;7.72;3.35;;;22.80;57.00;;;;;;10408281;28;20319;-46
2023/11/11 06:47:58;;;;;;;7.10;3.50;;;22.80;57.00;;;;;;10399931;28;20262;-45
2023/11/11 06:53:02;;;;;;;7.70;3.67;;;22.80;57.00;;;;;;10414236;28;20227;-46
2023/11/11 06:58:07;;;;;;;5.88;3.55;;;22.80;57.00;;;;;;10402127;28;20309;-52
2023/11/11 07:03:10;;;;;;;5.80;3.17;;;22.80;57.00;;;;;;10396993;28;20760;-45
2023/11/11 07:08:17;;;;;;;5.47;3.17;;;22.80;57.00;;;;;;10343400;28;20255;-57
2023/11/11 07:13:23;;;;;;;5.40;3.15;;;22.80;57.00;;;;;;10339229;28;20642;-46
2023/11/11 07:18:26;;;;;;;4.00;3.08;;;22.80;57.00;;;;;;10400577;28;20270;-46
2023/11/11 07:23:30;;;;;;;4.93;2.72;;;22.80;57.00;;;;;;10397367;28;20197;-51
2023/11/11 07:28:35;;;;;;;3.42;2.80;;;22.80;57.00;;;;;;10400339;28;20248;-47
2023/11/11 07:33:39;;;;;;;3.72;2.90;;;22.80;57.00;;;;;;10368796;28;20251;-48
2023/11/11 07:38:42;;;;;;;5.85;3.10;;;22.80;57.00;;;;;;10398120;28;20228;-48
2023/11/11 07:43:48;;;;;;;3.83;2.83;;;22.80;57.00;;;;;;10396758;28;20283;-49
2023/11/11 07:48:53;;;;;;;3.95;3.10;;;22.70;57.60;;;;;;10393296;28;20247;-44
2023/11/11 07:53:57;;;;;;;3.47;2.38;;;22.70;56.90;;;;;;10394232;28;20204;-50
2023/11/11 07:59:02;;;;;;;4.43;2.63;;;22.80;57.00;;;;;;10402140;28;20221;-46
2023/11/11 08:04:05;;;;;;;3.92;2.30;;;22.70;57.00;;;;;;10393833;28;20696;-44
2023/11/11 08:09:10;;;;;;;3.78;2.25;;;22.70;56.90;;;;;;10395308;28;20572;-50
2023/11/11 08:14:15;;;;;;;5.28;2.42;;;22.80;57.00;;;;;;10391812;28;20204;-44
2023/11/11 08:19:19;;;;;;;3.40;2.38;;;22.80;57.00;;;;;;10407664;28;20630;-44
2023/11/11 08:24:23;;;;;;;3.85;2.60;;;22.70;57.00;;;;;;10402639;28;20222;-45
2023/11/11 08:29:28;;;;;;;3.30;2.53;;;22.70;56.90;;;;;;10407447;28;20692;-44
2023/11/11 08:34:31;;;;;;;3.45;2.35;;;22.80;57.00;;;;;;10408574;28;20246;-44
2023/11/11 08:39:36;;;;;;;3.38;2.20;;;22.70;56.90;;;;;;10410912;28;21605;-45
2023/11/11 08:44:41;;;;;;;2.65;2.10;;;22.80;57.00;;;;;;10404372;28;20277;-48
2023/11/11 08:49:44;;;;;;;3.92;2.17;;;22.80;57.00;;;;;;10407169;28;20255;-48
2023/11/11 08:54:48;;;;;;;3.35;2.35;;;22.70;56.90;;;;;;10401017;28;20247;-44
2023/11/11 08:59:53;;;;;;;5.20;2.13;;;22.70;56.90;;;;;;10398104;28;20223;-46
2023/11/11 09:04:58;;;;;;;3.97;2.13;;;22.80;57.00;;;;;;10398261;28;20231;-49
2023/11/11 09:10:05;;;;;;;5.18;2.10;;;22.80;57.00;;;;;;10404813;28;20294;-47
2023/11/11 09:15:10;;;;;;;4.05;2.17;;;22.80;57.00;;;;;;10411043;28;20273;-45
2023/11/11 09:20:14;;;;;;;3.97;1.90;;;22.80;57.00;;;;;;10404508;28;20208;-45
2023/11/11 09:25:18;;;;;;;2.22;1.90;;;22.80;57.00;;;;;;10405482;28;20220;-48
2023/11/11 09:30:24;;;;;;;2.80;1.85;;;22.80;57.00;;;;;;10403063;28;20228;-47
2023/11/11 09:35:28;;;;;;;3.75;2.03;;;22.80;57.00;;;;;;10402722;28;20239;-48
2023/11/11 09:40:31;;;;;;;3.97;1.90;;;22.80;57.00;;;;;;10405851;28;20197;-48
2023/11/11 09:45:37;;;;;;;2.70;1.70;;;22.80;57.00;;;;;;10358772;28;20259;-46
2023/11/11 09:50:41;;;;;;;2.55;2.00;;;22.80;57.00;;;;;;10406503;28;20699;-58
2023/11/11 09:55:46;;;;;;;4.38;1.88;;;22.80;57.00;;;;;;10405048;28;20306;-45
2023/11/11 10:00:51;;;;;;;3.83;2.00;;;22.80;57.00;;;;;;10401305;28;20208;-44
2023/11/11 10:05:55;;;;;;;4.05;1.85;;;22.80;57.00;;;;;;10394627;28;20228;-54
2023/11/11 10:10:59;;;;;;;2.60;1.83;;;22.80;57.00;;;;;;10391410;28;20252;-48
2023/11/11 10:16:16;;;;;;;4.43;2.28;;;22.80;57.00;;;;;;10325212;28;20251;-48
2023/11/11 10:21:21;;;;;;;4.75;2.00;;;22.80;57.10;;;;;;10390999;28;20209;-49
2023/11/11 10:26:25;;;;;;;4.07;1.75;;;22.80;57.60;;;;;;10406494;28;20723;-45
2023/11/11 10:31:35;;;;;;;3.60;2.00;;;22.80;57.00;;;;;;10387770;28;20271;-46
2023/11/11 10:36:41;;;;;;;4.40;2.10;;;22.80;57.00;;;;;;10409069;28;20247;-51
2023/11/11 10:41:46;;;;;;;6.18;2.40;;;22.80;57.00;;;;;;10395077;28;20622;-49
2023/11/11 10:46:51;;;;;;;5.28;2.03;;;22.80;57.00;;;;;;10415002;28;20707;-54
2023/11/11 10:51:58;;;;;;;3.35;1.90;;;22.80;57.00;;;;;;10410078;28;20224;-65
2023/11/11 10:57:03;;;;;;;3.22;1.90;;;22.80;57.00;;;;;;10391615;28;20270;-47
2023/11/11 11:02:10;;;;;;;3.00;2.10;;;22.90;57.00;;;;;;10402238;28;20222;-50
2023/11/11 11:07:20;;;;;;;2.70;2.00;;;22.80;56.90;;;;;;10378901;28;20229;-45
2023/11/11 11:12:31;;;;;;;6.95;2.45;;;22.80;56.90;;;;;;10401662;28;20692;-48
2023/11/11 11:17:38;;;;;;;3.53;1.90;;;22.80;56.90;;;;;;10399708;28;20216;-45
2023/11/11 11:22:43;;;;;;;3.47;1.92;;;22.80;56.90;;;;;;10396695;28;20224;-44
2023/11/11 11:28:15;;;;;;;2.22;1.75;;;22.80;56.90;;;;;;10389401;28;20579;-42
2023/11/11 11:33:22;;;;;;;2.53;1.90;;;22.80;56.90;;;;;;10411501;28;20330;-41
2023/11/11 11:38:28;;;;;;;5.63;2.13;;;22.80;56.80;;;;;;10408213;28;20703;-47
2023/11/11 11:43:34;;;;;;;5.75;2.08;;;22.80;57.50;;;;;;10392166;28;20219;-48
2023/11/11 11:48:42;;;;;;;3.15;1.67;;;22.80;56.80;;;;;;10406698;28;20696;-45
2023/11/11 11:53:48;;;;;;;3.95;2.20;;;22.80;56.90;;;;;;10407914;28;20224;-43
2023/11/11 11:58:51;;;;;;;3.38;2.20;;;22.80;56.80;;;;;;10405661;28;20224;-44
2023/11/11 12:03:57;;;;;;;4.25;1.95;;;22.80;56.80;;;;;;10401904;28;20286;-47
2023/11/11 12:09:04;;;;;;;3.38;1.88;;;22.80;56.80;;;;;;10397889;28;20224;-42
2023/11/11 12:14:08;;;;;;;3.67;2.00;;;22.80;56.90;;;;;;10395041;28;20231;-43
2023/11/11 12:19:16;;;;;;;5.03;2.30;;;22.90;57.00;;;;;;10394302;28;20320;-45
2023/11/11 12:24:24;;;;;;;3.10;2.17;;;22.90;56.90;;;;;;10409305;28;20339;-46
2023/11/11 12:29:28;;;;;;;3.25;2.33;;;22.90;57.00;;;;;;10392089;28;20220;-49
2023/11/11 12:34:34;;;;;;;3.50;2.10;;;22.90;56.90;;;;;;10403781;28;20238;-55
2023/11/11 12:39:50;;;;;;;3.78;2.05;;;22.90;56.90;;;;;;10410741;28;20220;-48
2023/11/11 12:44:53;;;;;;;3.97;2.00;;;22.90;56.80;;;;;;10411412;28;20201;-48
2023/11/11 12:50:04;;;;;;;3.40;2.13;;;22.90;56.80;;;;;;10358819;28;20254;-45
2023/11/11 12:55:21;;;;;;;11.00;2.45;;;22.90;56.80;;;;;;10403436;28;20247;-46
2023/11/11 13:00:24;;;;;;;15.43;2.97;;;22.90;56.90;;;;;;10405491;28;20246;-47
2023/11/11 13:05:29;;;;;;;10.40;2.53;;;22.90;56.90;;;;;;10406341;28;20290;-44
2023/11/11 13:10:34;;;;;;;13.60;2.40;;;23.00;57.00;;;;;;10407631;28;20251;-45
2023/11/11 13:15:37;;;;;;;6.88;2.50;;;23.00;56.90;;;;;;10406325;28;20224;-43
2023/11/11 13:20:42;;;;;;;4.25;1.83;;;23.00;56.90;;;;;;10406558;28;20223;-49
2023/11/11 13:25:47;;;;;;;4.75;1.80;;;23.00;57.30;;;;;;10396576;28;20786;-43
2023/11/11 13:30:51;;;;;;;3.70;1.60;;;22.90;56.90;;;;;;10404624;28;20711;-48
2023/11/11 13:36:00;;;;;;;3.72;2.13;;;22.90;56.90;;;;;;10397745;28;20595;-54
2023/11/11 13:41:05;;;;;;;2.65;2.20;;;22.90;56.90;;;;;;10377176;28;20617;-44
2023/11/11 13:46:09;;;;;;;5.00;2.30;;;22.90;56.90;;;;;;10402118;28;20294;-45
2023/11/11 13:51:15;;;;;;;4.20;2.20;;;22.90;56.90;;;;;;10400835;28;20224;-45
2023/11/11 13:56:18;;;;;;;6.93;2.50;;;22.90;56.90;;;;;;10401079;28;20278;-43
2023/11/11 14:01:24;;;;;;;2.58;2.13;;;22.90;56.90;;;;;;10407739;28;20282;-44
2023/11/11 14:06:32;;;;;;;4.05;2.70;;;22.90;57.50;;;;;;10412355;28;20219;-46
2023/11/11 14:11:36;;;;;;;6.88;3.47;;;22.80;56.80;;;;;;10408040;28;20216;-47
2023/11/11 14:16:39;;;;;;;4.55;3.15;;;22.80;56.80;;;;;;10410237;28;20611;-43
2023/11/11 14:21:45;;;;;;;4.22;2.92;;;22.80;56.80;;;;;;10411353;28;20196;-43
2023/11/11 14:26:49;;;;;;;3.88;3.00;;;22.80;56.80;;;;;;10406851;28;20223;-46
2023/11/11 14:31:52;;;;;;;5.90;2.60;;;22.80;56.80;;;;;;10412752;28;20223;-44
2023/11/11 14:36:58;;;;;;;4.60;2.30;;;22.80;56.80;;;;;;10414251;28;20277;-46
2023/11/11 14:42:04;;;;;;;4.95;2.35;;;22.80;56.80;;;;;;10379701;28;20325;-54
2023/11/11 14:47:08;;;;;;;5.30;2.67;;;22.80;56.90;;;;;;10414227;28;20790;-47
2023/11/11 14:52:13;;;;;;;3.00;2.40;;;22.80;56.80;;;;;;10417600;28;20255;-43
2023/11/11 14:57:16;;;;;;;3.13;2.33;;;22.80;57.50;;;;;;10395102;28;20695;-44
2023/11/11 15:02:20;;;;;;;3.63;2.20;;;22.80;56.80;;;;;;10412300;28;20201;-45
2023/11/11 15:07:25;;;;;;;5.07;2.30;;;22.80;56.80;;;;;;10418908;28;20649;-43
2023/11/11 15:12:29;;;;;;;4.75;2.30;;;22.80;56.80;;;;;;10407145;28;20252;-45
2023/11/11 15:17:33;;;;;;;3.15;2.20;;;22.80;56.80;;;;;;10409989;28;20220;-43
2023/11/11 15:22:38;;;;;;;3.15;2.17;;;22.80;56.90;;;;;;10404987;28;20219;-45
2023/11/11 15:27:43;;;;;;;3.38;2.50;;;22.80;56.80;;;;;;10404615;28;20250;-47
2023/11/11 15:32:47;;;;;;;4.10;2.50;;;22.80;56.80;;;;;;10407905;28;20330;-51
2023/11/11 15:37:55;;;;;;;4.00;2.13;;;22.90;56.90;;;;;;10402466;28;20764;-44
2023/11/11 15:42:59;;;;;;;2.47;2.00;;;22.90;56.90;;;;;;10401665;28;20652;-50
2023/11/11 15:48:03;;;;;;;3.38;2.33;;;23.00;57.00;;;;;;10405302;28;20342;-46
2023/11/11 15:53:09;;;;;;;3.13;2.00;;;23.00;56.90;;;;;;10403239;28;20260;-40
2023/11/11 15:58:12;;;;;;;9.65;2.50;;;23.10;56.90;;;;;;10405099;28;20220;-47
2023/11/11 16:03:16;;;;;;;5.82;2.35;;;23.20;57.00;;;;;;10403650;28;20223;-49
2023/11/11 16:08:21;;;;;;;8.00;2.42;;;23.20;56.90;;;;;;10405025;28;20243;-47
2023/11/11 16:13:25;;;;;;;5.40;2.97;;;23.20;56.90;;;;;;10407684;28;20297;-52
2023/11/11 16:18:28;;;;;;;4.22;2.72;;;23.30;56.90;;;;;;10408818;28;20687;-45
2023/11/11 16:23:33;;;;;;;5.95;2.67;;;23.40;57.00;;;;;;10397332;28;20274;-45
2023/11/11 16:28:37;;;;;;;3.72;2.65;;;23.40;56.90;;;;;;10395895;28;20256;-43
2023/11/11 16:33:40;;;;;;;3.05;2.00;;;23.40;56.80;;;;;;10405598;28;20256;-48
2023/11/11 16:38:45;;;;;;;5.53;2.53;;;23.50;56.80;;;;;;10395542;28;20270;-47
2023/11/11 16:43:49;;;;;;;4.13;2.13;;;23.50;56.80;;;;;;10357184;28;20672;-44
2023/11/11 16:48:53;;;;;;;9.32;2.72;;;23.50;56.90;;;;;;10398710;28;20286;-45
2023/11/11 16:53:58;;;;;;;7.45;2.13;;;23.50;56.80;;;;;;10391652;28;20687;-43
2023/11/11 16:59:02;;;;;;;7.95;2.35;;;23.40;56.80;;;;;;10385703;28;20224;-44
2023/11/11 17:04:11;;;;;;;6.80;2.40;;;23.40;56.80;;;;;;10397178;28;20219;-40
2023/11/11 17:09:20;;;;;;;4.05;2.05;;;23.30;57.40;;;;;;10405019;28;20228;-41
2023/11/11 17:14:26;;;;;;;3.90;2.10;;;23.30;56.80;;;;;;10403556;28;20298;-41
2023/11/11 17:19:31;;;;;;;2.85;2.30;;;23.20;56.70;;;;;;10395757;28;20251;-44
2023/11/11 17:24:36;;;;;;;7.68;2.20;;;23.20;56.80;;;;;;10395447;28;20273;-41
2023/11/11 17:29:40;;;;;;;4.45;2.05;;;23.10;57.30;;;;;;10398981;28;20679;-46
2023/11/11 17:34:43;;;;;;;8.07;2.35;;;23.10;56.80;;;;;;10404959;28;20301;-46
2023/11/11 17:39:48;;;;;;;2.95;2.33;;;23.00;56.70;;;;;;10397895;28;20220;-44
2023/11/11 17:44:52;;;;;;;5.65;2.60;;;22.80;53.60;;;;;;10402189;28;20216;-43
2023/11/11 17:49:56;;;;;;;8.80;2.28;;;22.10;51.90;;;;;;10396731;28;20624;-44
2023/11/11 17:55:01;;;;;;;6.32;2.25;;;21.80;54.20;;;;;;10401035;28;20220;-46
2023/11/11 18:00:12;;;;;;;6.80;2.60;;;22.00;55.00;;;;;;10363006;28;20297;-56
2023/11/11 18:05:17;;;;;;;10.60;2.72;;;22.20;55.40;;;;;;10399309;28;20988;-43
2023/11/11 18:10:23;;;;;;;9.63;2.33;;;22.40;55.70;;;;;;10372354;28;20606;-50
2023/11/11 18:15:27;;;;;;;9.15;2.47;;;22.50;55.90;;;;;;10393688;28;20247;-48
2023/11/11 18:20:31;;;;;;;14.23;2.65;;;22.60;56.00;;;;;;10392553;28;20196;-44
2023/11/11 18:25:38;;;;;;;5.93;2.05;;;22.60;56.10;;;;;;10391494;28;20659;-47
2023/11/11 18:30:42;;;;;;;7.00;2.30;;;22.70;56.30;;;;;;10394857;28;20209;-48
2023/11/11 18:35:46;;;;;;;6.43;2.10;;;22.80;56.40;;;;;;10399893;28;20244;-45
2023/11/11 18:40:51;;;;;;;11.45;3.33;;;22.90;56.50;;;;;;10389378;28;20200;-51
2023/11/11 18:45:55;;;;;;;6.28;2.60;;;22.90;56.50;;;;;;10398185;28;20297;-44
2023/11/11 18:50:58;;;;;;;7.70;2.72;;;22.90;56.50;;;;;;10403421;28;20263;-44
2023/11/11 18:56:04;;;;;;;6.38;2.38;;;22.90;56.50;;;;;;10410620;28;20711;-45
2023/11/11 19:01:10;;;;;;;3.85;2.13;;;22.80;56.50;;;;;;10413099;28;20226;-46
2023/11/11 19:06:14;;;;;;;4.32;2.20;;;22.80;56.60;;;;;;10406770;28;20217;-44
2023/11/11 19:11:22;;;;;;;2.83;1.75;;;22.80;56.60;;;;;;10405942;28;20749;-47
2023/11/11 19:16:26;;;;;;;4.75;2.13;;;22.80;56.70;;;;;;10385344;28;20281;-44
2023/11/11 19:21:36;;;;;;;2.47;2.00;;;22.80;56.70;;;;;;10411556;28;20262;-43
2023/11/11 19:26:41;;;;;;;3.65;2.00;;;22.80;56.70;;;;;;10399952;28;21112;-48
2023/11/11 19:31:45;;;;;;;5.53;2.10;;;22.80;56.80;;;;;;10402552;28;20231;-47
2023/11/11 19:36:49;;;;;;;3.88;2.00;;;22.80;56.80;;;;;;10403012;28;20247;-44
2023/11/11 19:41:54;;;;;;;4.82;2.38;;;22.80;56.80;;;;;;10411060;28;20559;-45
2023/11/11 19:46:58;;;;;;;5.00;1.90;;;22.80;56.80;;;;;;10407828;28;20286;-49
2023/11/11 19:52:01;;;;;;;5.13;2.10;;;22.80;56.90;;;;;;10401705;28;20304;-43
2023/11/11 19:57:06;;;;;;;3.30;2.00;;;22.80;56.80;;;;;;10396561;28;20248;-47
2023/11/11 20:02:10;;;;;;;4.95;2.20;;;22.80;57.50;;;;;;10399257;28;20695;-48
2023/11/11 20:07:15;;;;;;;3.17;1.98;;;22.80;57.00;;;;;;10388474;28;20275;-46
2023/11/11 20:12:23;;;;;;;3.85;1.90;;;22.80;56.90;;;;;;10382444;28;20232;-49
2023/11/11 20:17:26;;;;;;;3.72;1.88;;;22.80;57.00;;;;;;10397437;28;20259;-45
2023/11/11 20:22:30;;;;;;;5.32;1.95;;;22.80;57.00;;;;;;10382656;28;20205;-48
2023/11/11 20:27:36;;;;;;;2.05;1.65;;;22.80;57.00;;;;;;10402302;28;20814;-50
2023/11/11 20:32:40;;;;;;;2.90;1.98;;;22.80;57.00;;;;;;10396005;28;20197;-48
2023/11/11 20:37:44;;;;;;;2.58;2.10;;;22.80;57.00;;;;;;10394272;28;20722;-48
2023/11/11 20:42:51;;;;;;;2.00;1.77;;;22.80;57.00;;;;;;10394545;28;20220;-48
2023/11/11 20:47:56;;;;;;;3.95;1.75;;;22.80;57.10;;;;;;10393257;28;20223;-57
2023/11/11 20:53:01;;;;;;;2.90;1.80;;;22.80;57.10;;;;;;10394671;28;20196;-44
2023/11/11 20:58:06;;;;;;;4.07;1.80;;;22.80;57.10;;;;;;10393134;28;20651;-46
2023/11/11 21:03:09;;;;;;;2.60;1.75;;;22.80;57.10;;;;;;10384250;28;20204;-44
2023/11/11 21:08:14;;;;;;;3.25;1.90;;;22.80;57.10;;;;;;10400674;28;20600;-49
2023/11/11 21:13:19;;;;;;;2.22;1.85;;;22.80;57.20;;;;;;10393052;28;20204;-43
2023/11/11 21:18:23;;;;;;;5.50;2.00;;;22.80;57.20;;;;;;10399915;28;20758;-49
2023/11/11 21:23:27;;;;;;;2.30;1.80;;;22.80;57.20;;;;;;10403960;28;20404;-48
2023/11/11 21:28:32;;;;;;;2.35;2.13;;;22.80;57.20;;;;;;10389502;28;20213;-46
2023/11/11 21:33:36;;;;;;;3.13;1.95;;;22.80;57.20;;;;;;10374950;28;20255;-49
2023/11/11 21:38:40;;;;;;;2.40;1.83;;;22.80;57.20;;;;;;10388684;28;20240;-45
2023/11/11 21:43:45;;;;;;;3.70;2.20;;;22.80;57.20;;;;;;10387982;28;20975;-45
2023/11/11 21:48:50;;;;;;;2.70;2.00;;;22.80;57.20;;;;;;10390437;28;20255;-45
2023/11/11 21:53:53;;;;;;;2.40;1.88;;;22.80;57.20;;;;;;10387013;28;20196;-46
2023/11/11 21:58:59;;;;;;;3.20;2.10;;;22.80;57.20;;;;;;10392929;28;20224;-48
2023/11/11 22:04:02;;;;;;;3.15;2.33;;;22.80;57.20;;;;;;10393395;28;20668;-49
2023/11/11 22:09:06;;;;;;;5.00;2.83;;;22.80;57.20;;;;;;10389600;28;20217;-47
2023/11/11 22:14:11;;;;;;;11.45;2.97;;;22.80;57.20;;;;;;10384291;28;20695;-47
2023/11/11 22:19:15;;;;;;;7.35;2.88;;;22.80;57.20;;;;;;10388270;28;20251;-45
2023/11/11 22:24:18;;;;;;;5.32;2.70;;;22.70;57.10;;;;;;10403703;28;20286;-44
2023/11/11 22:29:23;;;;;;;8.50;3.10;;;22.80;57.20;;;;;;10397602;28;20224;-49
2023/11/11 22:34:27;;;;;;;6.82;3.28;;;22.80;57.20;;;;;;10401993;28;20299;-46
2023/11/11 22:39:30;;;;;;;6.00;3.28;;;22.80;57.20;;;;;;10406160;28;20220;-45
2023/11/11 22:44:35;;;;;;;6.65;2.75;;;22.80;57.20;;;;;;10410122;28;20246;-45
2023/11/11 22:49:39;;;;;;;6.28;3.20;;;22.80;57.20;;;;;;10400773;28;20703;-43
2023/11/11 22:54:43;;;;;;;6.78;3.05;;;22.80;57.20;;;;;;10406821;28;20247;-45
2023/11/11 22:59:48;;;;;;;5.32;3.00;;;22.80;57.80;;;;;;10405897;28;20221;-45
2023/11/11 23:04:52;;;;;;;9.32;2.70;;;22.80;57.20;;;;;;10406291;28;20840;-48
2023/11/11 23:09:56;;;;;;;5.43;2.58;;;22.80;57.20;;;;;;10402350;28;20258;-47
2023/11/11 23:15:07;;;;;;;7.32;2.53;;;22.80;57.20;;;;;;10400324;28;20248;-48
2023/11/11 23:20:12;;;;;;;5.38;2.20;;;22.80;57.20;;;;;;10402055;28;20620;-47
2023/11/11 23:25:16;;;;;;;5.97;2.63;;;22.80;57.20;;;;;;10407641;28;20769;-45
2023/11/11 23:30:21;;;;;;;5.20;2.90;;;22.80;57.20;;;;;;10403627;28;20558;-45
2023/11/11 23:35:24;;;;;;;5.82;2.95;;;22.80;57.20;;;;;;10410148;28;20321;-49
2023/11/11 23:40:28;;;;;;;4.85;2.45;;;22.80;57.20;;;;;;10409985;28;20250;-46
2023/11/11 23:45:33;;;;;;;4.13;2.75;;;22.80;57.20;;;;;;10406826;28;20297;-49
2023/11/11 23:50:37;;;;;;;5.65;2.78;;;22.70;57.10;;;;;;10408375;28;20197;-49
2023/11/11 23:55:41;;;;;;;3.50;2.67;;;22.70;57.10;;;;;;10411639;28;20224;-44
